Time,TemperatureF,DewpointF,PressureIn,WindDirection,WindDirectionDegrees,WindSpeedMPH,WindSpeedGustMPH,Humidity,HourlyPrecipIn,Conditions,Clouds,dailyrainin,SolarRadiationWatts/m^2,SoftwareType,DateUTC
2013-08-03 00:00:00,72.2,66.8,30.07,NE,54,0.0,0.0,83,0.00,,SCT,0.00,0.00,VWS V14.01,2013-08-03 04:00:00,
2013-08-03 00:01:00,72.5,64.9,30.07,NE,54,0.0,0.0,77,0.00,,SCT,0.00,0.00,VWS V14.01,2013-08-03 04:01:00,
2013-08-03 00:06:00,72.5,66.0,30.07,NE,54,0.0,0.0,80,0.00,,SCT,0.00,0.00,VWS V14.01,2013-08-03 04:06:00,
2013-08-03 00:11:00,72.0,65.9,30.08,NE,54,0.0,0.0,81,0.00,,SCT,0.00,0.00,VWS V14.01,2013-08-03 04:11:00,
2013-08-03 00:16:00,71.1,66.0,30.08,NE,54,0.0,0.0,84,0.00,,SCT,0.00,0.00,VWS V14.01,2013-08-03 04:16:00,
2013-08-03 00:21:00,70.1,65.7,30.08,NE,54,0.0,0.0,86,0.00,,SCT,0.00,0.00,VWS V14.01,2013-08-03 04:21:00,
2013-08-03 00:26:00,69.8,65.4,30.07,NE,54,0.0,0.0,86,0.00,,SCT,0.00,0.00,VWS V14.01,2013-08-03 04:26:00,
2013-08-03 00:31:00,69.9,65.9,30.07,NE,54,0.0,0.0,87,0.00,,SCT,0.00,0.00,VWS V14.01,2013-08-03 04:31:00,
2013-08-03 00:36:00,70.3,66.2,30.07,NE,54,0.0,0.0,87,0.00,,SCT,0.00,0.00,VWS V14.01,2013-08-03 04:36:00,
2013-08-03 00:42:00,70.5,66.1,30.07,NE,54,0.0,0.0,86,0.00,,SCT,0.00,0.00,VWS V14.01,2013-08-03 04:42:00,
2013-08-03 00:47:00,70.7,66.3,30.07,NE,54,0.0,0.0,86,0.00,,SCT,0.00,0.00,VWS V14.01,2013-08-03 04:47:00,
2013-08-03 00:52:00,70.7,66.3,30.07,NE,54,0.0,0.0,86,0.00,,SCT,0.00,0.00,VWS V14.01,2013-08-03 04:52:00,
2013-08-03 00:57:00,70.7,66.0,30.07,NNW,331,0.0,0.0,85,0.00,,SCT,0.00,0.00,VWS V14.01,2013-08-03 04:57:00,
2013-08-03 01:00:00,70.7,66.3,30.07,NE,54,0.0,0.0,86,0.00,,SCT,0.00,0.00,VWS V14.01,2013-08-03 05:00:00,
2013-08-03 01:02:00,71.1,64.6,30.06,NNW,331,0.0,0.0,80,0.00,,SCT,0.00,0.00,VWS V14.01,2013-08-03 05:02:00,
2013-08-03 01:07:00,72.1,64.1,30.06,NNW,331,0.0,0.0,76,0.00,,SCT,0.00,0.00,VWS V14.01,2013-08-03 05:07:00,
2013-08-03 01:12:00,72.6,65.0,30.06,NNW,331,0.0,0.0,77,0.00,,SCT,0.00,0.00,VWS V14.01,2013-08-03 05:12:00,
2013-08-03 01:17:00,72.2,63.8,30.06,NNW,331,0.0,0.0,75,0.00,,SCT,0.00,0.00,VWS V14.01,2013-08-03 05:17:00,
2013-08-03 01:22:00,71.5,65.0,30.06,NNW,331,0.0,0.0,80,0.00,,SCT,0.00,0.00,VWS V14.01,2013-08-03 05:22:00,
2013-08-03 01:27:00,70.7,64.6,30.06,NNW,331,0.0,0.0,81,0.00,,SCT,0.00,0.00,VWS V14.01,2013-08-03 05:27:00,
2013-08-03 01:32:00,70.8,64.3,30.06,NNW,331,0.0,0.0,80,0.00,,SCT,0.00,0.00,VWS V14.01,2013-08-03 05:32:00,
2013-08-03 01:37:00,70.5,65.1,30.06,East,84,0.0,0.0,83,0.00,,SCT,0.00,0.00,VWS V14.01,2013-08-03 05:37:00,
2013-08-03 01:42:00,70.3,65.2,30.06,NNE,30,0.0,0.0,84,0.00,,SCT,0.00,0.00,VWS V14.01,2013-08-03 05:42:00,
2013-08-03 01:47:00,69.9,65.5,30.07,ESE,104,0.0,0.0,86,0.00,,SCT,0.00,0.00,VWS V14.01,2013-08-03 05:47:00,
2013-08-03 01:52:00,69.3,65.6,30.06,ESE,104,0.0,0.0,88,0.00,,SCT,0.00,0.00,VWS V14.01,2013-08-03 05:52:00,
2013-08-03 01:57:00,68.8,65.4,30.06,ESE,104,0.0,0.0,89,0.00,,SCT,0.00,0.00,VWS V14.01,2013-08-03 05:57:00,
2013-08-03 02:00:00,69.2,65.5,30.06,ESE,104,0.0,0.0,88,0.00,,SCT,0.00,0.00,VWS V14.01,2013-08-03 06:00:00,
2013-08-03 02:02:00,68.4,65.4,30.06,SSW,200,0.0,0.0,90,0.00,,SCT,0.00,0.00,VWS V14.01,2013-08-03 06:02:00,
2013-08-03 02:07:00,68.0,65.3,30.06,SSE,160,0.0,0.0,91,0.00,,SCT,0.00,0.00,VWS V14.01,2013-08-03 06:07:00,
2013-08-03 02:12:00,68.6,65.2,30.06,East,101,0.0,0.0,89,0.00,,SCT,0.00,0.00,VWS V14.01,2013-08-03 06:12:00,
2013-08-03 02:17:00,68.6,65.6,30.06,East,100,0.0,0.0,90,0.00,,SCT,0.00,0.00,VWS V14.01,2013-08-03 06:17:00,
2013-08-03 02:22:00,68.9,65.5,30.06,East,96,0.0,0.0,89,0.00,,SCT,0.00,0.00,VWS V14.01,2013-08-03 06:22:00,
2013-08-03 02:27:00,69.6,65.6,30.06,East,96,0.0,0.0,87,0.00,,SCT,0.00,0.00,VWS V14.01,2013-08-03 06:27:00,
2013-08-03 02:32:00,69.6,65.2,30.06,East,86,0.0,0.0,86,0.00,,SCT,0.00,0.00,VWS V14.01,2013-08-03 06:32:00,
2013-08-03 02:37:00,69.3,64.9,30.05,ENE,62,0.0,0.0,86,0.00,,SCT,0.00,0.00,VWS V14.01,2013-08-03 06:37:00,
2013-08-03 02:42:00,69.1,65.1,30.06,East,91,0.0,0.0,87,0.00,,SCT,0.00,0.00,VWS V14.01,2013-08-03 06:42:00,
2013-08-03 02:47:00,68.8,64.8,30.05,East,91,0.0,0.0,87,0.00,,SCT,0.00,0.00,VWS V14.01,2013-08-03 06:47:00,
2013-08-03 02:52:00,68.5,64.8,30.06,East,91,0.0,0.0,88,0.00,,SCT,0.00,0.00,VWS V14.01,2013-08-03 06:52:00,
2013-08-03 02:57:00,69.1,64.7,30.05,East,91,0.0,0.0,86,0.00,,SCT,0.00,0.00,VWS V14.01,2013-08-03 06:57:00,
2013-08-03 03:00:00,68.5,64.8,30.06,East,91,0.0,0.0,88,0.00,,SCT,0.00,0.00,VWS V14.01,2013-08-03 07:00:00,
2013-08-03 03:02:00,69.7,65.0,30.05,East,91,0.0,0.0,85,0.00,,SCT,0.00,0.00,VWS V14.01,2013-08-03 07:02:00,
2013-08-03 03:07:00,69.4,65.0,30.05,East,91,0.0,0.0,86,0.00,,SCT,0.00,0.00,VWS V14.01,2013-08-03 07:07:00,
2013-08-03 03:12:00,69.1,65.1,30.05,East,91,0.0,0.0,87,0.00,,SCT,0.00,0.00,VWS V14.01,2013-08-03 07:12:00,
2013-08-03 03:17:00,68.7,64.7,30.05,North,5,0.0,0.0,87,0.00,,SCT,0.00,0.00,VWS V14.01,2013-08-03 07:17:00,
2013-08-03 03:22:00,68.7,65.0,30.05,North,11,0.0,0.0,88,0.00,,SCT,0.00,0.00,VWS V14.01,2013-08-03 07:22:00,
2013-08-03 03:27:00,69.2,64.8,30.05,North,5,0.0,0.0,86,0.00,,SCT,0.00,0.00,VWS V14.01,2013-08-03 07:27:00,
2013-08-03 03:32:00,68.9,64.9,30.05,North,5,0.0,0.0,87,0.00,,SCT,0.00,0.00,VWS V14.01,2013-08-03 07:32:00,
2013-08-03 03:37:00,68.5,64.8,30.05,North,5,0.0,0.0,88,0.00,,SCT,0.00,0.00,VWS V14.01,2013-08-03 07:37:00,
2013-08-03 03:42:00,68.6,64.9,30.05,North,5,0.0,0.0,88,0.00,,SCT,0.00,0.00,VWS V14.01,2013-08-03 07:42:00,
2013-08-03 03:47:00,68.9,65.2,30.05,North,5,0.0,0.0,88,0.00,,SCT,0.00,0.00,VWS V14.01,2013-08-03 07:47:00,
2013-08-03 03:52:00,68.9,65.2,30.05,North,5,0.0,0.0,88,0.00,,SCT,0.00,0.00,VWS V14.01,2013-08-03 07:52:00,
2013-08-03 03:57:00,69.2,64.5,30.05,North,5,0.0,0.0,85,0.00,,SCT,0.00,0.00,VWS V14.01,2013-08-03 07:57:00,
2013-08-03 04:00:00,68.9,65.2,30.05,North,5,0.0,0.0,88,0.00,,SCT,0.00,0.00,VWS V14.01,2013-08-03 08:00:00,
2013-08-03 04:02:00,70.7,64.6,30.05,North,5,0.0,0.0,81,0.00,,SCT,0.00,0.00,VWS V14.01,2013-08-03 08:02:00,
2013-08-03 04:07:00,70.6,65.5,30.05,NE,54,0.0,0.0,84,0.00,,SCT,0.00,0.00,VWS V14.01,2013-08-03 08:07:00,
2013-08-03 04:12:00,69.7,65.0,30.05,NE,42,0.0,0.0,85,0.00,,SCT,0.00,0.00,VWS V14.01,2013-08-03 08:12:00,
2013-08-03 04:17:00,69.3,64.9,30.06,ENE,67,0.0,0.0,86,0.00,,SCT,0.00,0.00,VWS V14.01,2013-08-03 08:17:00,
2013-08-03 04:22:00,68.8,64.8,30.06,ENE,76,0.0,0.0,87,0.00,,SCT,0.00,0.00,VWS V14.01,2013-08-03 08:22:00,
2013-08-03 04:27:00,68.1,64.4,30.06,NE,46,0.0,0.0,88,0.00,,SCT,0.00,0.00,VWS V14.01,2013-08-03 08:27:00,
2013-08-03 04:32:00,67.6,64.6,30.06,NE,46,0.0,0.0,90,0.00,,SCT,0.00,0.00,VWS V14.01,2013-08-03 08:32:00,
2013-08-03 04:37:00,67.6,64.9,30.06,NE,46,0.0,0.0,91,0.00,,SCT,0.00,0.00,VWS V14.01,2013-08-03 08:37:00,
2013-08-03 04:42:00,67.4,64.7,30.06,NE,46,0.0,0.0,91,0.00,,SCT,0.00,0.00,VWS V14.01,2013-08-03 08:42:00,
2013-08-03 04:47:00,66.9,64.5,30.06,NE,46,0.0,0.0,92,0.00,,SCT,0.00,0.00,VWS V14.01,2013-08-03 08:47:00,
2013-08-03 04:52:00,66.7,64.6,30.06,NE,46,0.0,0.0,93,0.00,,SCT,0.00,0.00,VWS V14.01,2013-08-03 08:52:00,
2013-08-03 04:57:00,66.5,64.4,30.06,ENE,74,0.0,0.0,93,0.00,,SCT,0.00,0.00,VWS V14.01,2013-08-03 08:57:00,
2013-08-03 05:00:00,66.7,64.6,30.06,NE,46,0.0,0.0,93,0.00,,SCT,0.00,0.00,VWS V14.01,2013-08-03 09:00:00,
2013-08-03 05:02:00,66.3,64.2,30.06,ENE,74,0.0,0.0,93,0.00,,SCT,0.00,0.00,VWS V14.01,2013-08-03 09:02:00,
2013-08-03 05:07:00,66.3,64.2,30.06,NNE,27,0.0,0.0,93,0.00,,SCT,0.00,0.00,VWS V14.01,2013-08-03 09:07:00,
2013-08-03 05:12:00,66.4,64.3,30.06,NNE,27,0.0,0.0,93,0.00,,SCT,0.00,0.00,VWS V14.01,2013-08-03 09:12:00,
2013-08-03 05:17:00,66.7,64.6,30.05,NNE,15,0.0,0.0,93,0.00,,SCT,0.00,0.00,VWS V14.01,2013-08-03 09:17:00,
2013-08-03 05:22:00,67.0,64.6,30.05,NNE,20,0.0,0.0,92,0.00,,SCT,0.00,0.00,VWS V14.01,2013-08-03 09:22:00,
2013-08-03 05:27:00,67.2,64.8,30.05,NNE,20,0.0,0.0,92,0.00,,SCT,0.00,0.00,VWS V14.01,2013-08-03 09:27:00,
2013-08-03 05:32:00,67.1,64.4,30.05,NNE,20,0.0,0.0,91,0.00,,SCT,0.00,0.00,VWS V14.01,2013-08-03 09:32:00,
2013-08-03 05:37:00,66.8,64.4,30.05,NNE,20,0.0,0.0,92,0.00,,SCT,0.00,0.00,VWS V14.01,2013-08-03 09:37:00,
2013-08-03 05:42:00,66.6,64.2,30.05,NNE,20,0.0,0.0,92,0.00,,SCT,0.00,0.00,VWS V14.01,2013-08-03 09:42:00,
2013-08-03 05:47:00,66.3,63.9,30.06,NNE,20,0.0,0.0,92,0.00,,SCT,0.00,0.00,VWS V14.01,2013-08-03 09:47:00,
2013-08-03 05:52:00,66.1,64.0,30.06,NNE,28,0.0,0.0,93,0.00,,SCT,0.00,0.00,VWS V14.01,2013-08-03 09:52:00,
2013-08-03 05:57:00,66.2,64.1,30.06,NNE,28,0.0,0.0,93,0.00,,SCT,0.00,0.00,VWS V14.01,2013-08-03 09:57:00,
2013-08-03 06:00:00,66.1,64.0,30.06,NNE,28,0.0,0.0,93,0.00,,SCT,0.00,0.00,VWS V14.01,2013-08-03 10:00:00,
2013-08-03 06:02:00,66.5,64.1,30.06,NNE,28,0.0,0.0,92,0.00,,SCT,0.00,0.00,VWS V14.01,2013-08-03 10:02:00,
2013-08-03 06:07:00,66.5,64.1,30.06,NNE,28,0.0,0.0,92,0.00,,SCT,0.00,0.00,VWS V14.01,2013-08-03 10:07:00,
2013-08-03 06:12:00,66.6,64.2,30.06,NNE,28,0.0,0.0,92,0.00,,SCT,0.00,0.00,VWS V14.01,2013-08-03 10:12:00,
2013-08-03 06:17:00,67.0,64.6,30.06,NNE,28,0.0,0.0,92,0.00,,SCT,0.00,0.00,VWS V14.01,2013-08-03 10:17:00,
2013-08-03 06:22:00,67.2,64.2,30.06,NNE,28,0.0,0.0,90,0.00,,SCT,0.00,0.00,VWS V14.01,2013-08-03 10:22:00,
2013-08-03 06:27:00,67.4,64.4,30.06,NNE,28,0.0,0.0,90,0.00,,SCT,0.00,0.00,VWS V14.01,2013-08-03 10:27:00,
2013-08-03 06:32:00,67.0,64.3,30.05,NW,322,0.0,0.0,91,0.00,,SCT,0.00,0.00,VWS V14.01,2013-08-03 10:32:00,
2013-08-03 06:37:00,66.9,64.2,30.06,ENE,63,0.0,0.0,91,0.00,,SCT,0.00,7.00,VWS V14.01,2013-08-03 10:37:00,
2013-08-03 06:42:00,67.1,64.4,30.06,NNW,344,0.0,0.0,91,0.00,,SCT,0.00,14.00,VWS V14.01,2013-08-03 10:42:00,
2013-08-03 06:47:00,66.8,64.4,30.06,NNW,344,0.0,0.0,92,0.00,,SCT,0.00,18.00,VWS V14.01,2013-08-03 10:47:00,
2013-08-03 06:52:00,67.1,64.7,30.06,NNW,344,0.0,0.0,92,0.00,,SCT,0.00,23.00,VWS V14.01,2013-08-03 10:52:00,
2013-08-03 06:57:00,68.3,64.3,30.06,NNW,344,0.0,0.0,87,0.00,,SCT,0.00,25.00,VWS V14.01,2013-08-03 10:57:00,
2013-08-03 07:00:00,67.1,64.7,30.06,NNW,344,0.0,0.0,92,0.00,,SCT,0.00,25.00,VWS V14.01,2013-08-03 11:00:00,
2013-08-03 07:02:00,69.1,64.4,30.06,NNW,344,0.0,0.0,85,0.00,,SCT,0.00,25.00,VWS V14.01,2013-08-03 11:02:00,
2013-08-03 07:07:00,68.0,64.6,30.06,NNW,344,0.0,0.0,89,0.00,,SCT,0.00,25.00,VWS V14.01,2013-08-03 11:07:00,
2013-08-03 07:12:00,68.2,64.5,30.06,NNW,344,0.0,0.0,88,0.00,,SCT,0.00,26.00,VWS V14.01,2013-08-03 11:12:00,
2013-08-03 07:17:00,69.2,64.5,30.06,NNW,344,0.0,0.0,85,0.00,,SCT,0.00,30.00,VWS V14.01,2013-08-03 11:17:00,
2013-08-03 07:22:00,69.5,64.1,30.06,NNW,344,0.0,0.0,83,0.00,,SCT,0.00,37.00,VWS V14.01,2013-08-03 11:22:00,
2013-08-03 07:27:00,69.5,64.8,30.06,NNW,344,0.0,0.0,85,0.00,,SCT,0.00,49.00,VWS V14.01,2013-08-03 11:27:00,
2013-08-03 07:32:00,69.1,64.7,30.06,NNW,344,0.0,0.0,86,0.00,,SCT,0.00,70.00,VWS V14.01,2013-08-03 11:32:00,
2013-08-03 07:37:00,69.1,64.1,30.06,NNW,344,0.0,0.0,84,0.00,,SCT,0.00,88.00,VWS V14.01,2013-08-03 11:37:00,
2013-08-03 07:42:00,70.2,64.8,30.06,NNW,344,0.0,0.0,83,0.00,,SCT,0.00,88.00,VWS V14.01,2013-08-03 11:42:00,
2013-08-03 07:47:00,69.2,65.2,30.06,NNW,344,0.0,0.0,87,0.00,,SCT,0.00,74.00,VWS V14.01,2013-08-03 11:47:00,
2013-08-03 07:52:00,70.7,64.6,30.06,NNW,344,0.0,4.0,81,0.00,,SCT,0.00,74.00,VWS V14.01,2013-08-03 11:52:00,
2013-08-03 07:57:00,71.6,65.8,30.06,NNW,344,0.0,3.0,82,0.00,,SCT,0.00,56.00,VWS V14.01,2013-08-03 11:57:00,
2013-08-03 08:00:00,70.8,64.7,30.06,NNW,344,1.0,4.0,81,0.00,,SCT,0.00,72.00,VWS V14.01,2013-08-03 12:00:00,
2013-08-03 08:02:00,71.6,66.2,30.06,NNW,344,0.0,3.0,83,0.00,,SCT,0.00,51.00,VWS V14.01,2013-08-03 12:02:00,
2013-08-03 08:07:00,71.0,65.6,30.06,NNW,344,0.0,3.0,83,0.00,,SCT,0.00,60.00,VWS V14.01,2013-08-03 12:07:00,
2013-08-03 08:12:00,70.7,66.3,30.06,NNW,344,0.0,3.0,86,0.00,,SCT,0.00,63.00,VWS V14.01,2013-08-03 12:12:00,
2013-08-03 08:17:00,70.7,66.3,30.06,NNW,344,0.0,3.0,86,0.00,,SCT,0.00,69.00,VWS V14.01,2013-08-03 12:17:00,
2013-08-03 08:22:00,70.7,66.7,30.07,NNW,344,0.0,3.0,87,0.00,,SCT,0.00,74.00,VWS V14.01,2013-08-03 12:22:00,
2013-08-03 08:27:00,70.6,66.9,30.06,NNE,32,0.0,3.0,88,0.00,,SCT,0.00,88.00,VWS V14.01,2013-08-03 12:27:00,
2013-08-03 08:32:00,70.7,67.0,30.06,NNE,30,0.0,3.0,88,0.00,,SCT,0.00,95.00,VWS V14.01,2013-08-03 12:32:00,
2013-08-03 08:37:00,70.5,65.8,30.06,NNE,25,0.0,4.0,85,0.00,,SCT,0.00,109.00,VWS V14.01,2013-08-03 12:37:00,
2013-08-03 08:42:00,70.9,66.5,30.06,East,85,0.0,4.0,86,0.00,,SCT,0.00,130.00,VWS V14.01,2013-08-03 12:42:00,
2013-08-03 08:47:00,70.8,67.1,30.07,ENE,77,0.0,4.0,88,0.00,,SCT,0.00,127.00,VWS V14.01,2013-08-03 12:47:00,
2013-08-03 08:52:00,70.6,66.2,30.07,ENE,78,0.0,4.0,86,0.00,,SCT,0.00,148.00,VWS V14.01,2013-08-03 12:52:00,
2013-08-03 08:57:00,70.6,66.2,30.07,ENE,78,0.0,3.0,86,0.00,,SCT,0.00,123.00,VWS V14.01,2013-08-03 12:57:00,
2013-08-03 09:00:00,70.6,66.2,30.07,ENE,78,0.0,4.0,86,0.00,,SCT,0.00,148.00,VWS V14.01,2013-08-03 13:00:00,
2013-08-03 09:02:00,70.6,65.9,30.07,NE,47,0.0,4.0,85,0.00,,SCT,0.00,104.00,VWS V14.01,2013-08-03 13:02:00,
2013-08-03 09:07:00,71.1,66.7,30.07,NE,35,0.0,4.0,86,0.00,,SCT,0.00,120.00,VWS V14.01,2013-08-03 13:07:00,
2013-08-03 09:12:00,71.2,66.8,30.07,NE,35,0.0,4.0,86,0.00,,SCT,0.00,114.00,VWS V14.01,2013-08-03 13:12:00,
2013-08-03 09:17:00,71.7,66.6,30.07,NE,35,0.0,4.0,84,0.00,,SCT,0.00,107.00,VWS V14.01,2013-08-03 13:17:00,
2013-08-03 09:22:00,71.7,66.9,30.07,NE,35,0.0,4.0,85,0.00,,SCT,0.00,113.00,VWS V14.01,2013-08-03 13:22:00,
2013-08-03 09:27:00,72.0,66.9,30.08,NE,35,0.0,4.0,84,0.00,,SCT,0.00,139.00,VWS V14.01,2013-08-03 13:27:00,
2013-08-03 09:32:00,72.1,67.3,30.08,NE,35,0.0,4.0,85,0.00,,SCT,0.00,149.00,VWS V14.01,2013-08-03 13:32:00,
2013-08-03 09:37:00,72.1,66.3,30.08,NE,35,0.0,4.0,82,0.00,,SCT,0.00,149.00,VWS V14.01,2013-08-03 13:37:00,
2013-08-03 09:42:00,72.6,67.5,30.07,NE,35,0.0,4.0,84,0.00,,SCT,0.00,172.00,VWS V14.01,2013-08-03 13:42:00,
2013-08-03 09:47:00,72.8,65.9,30.07,NE,35,0.0,4.0,79,0.00,,SCT,0.00,165.00,VWS V14.01,2013-08-03 13:47:00,
2013-08-03 09:52:00,72.8,66.3,30.07,NE,35,0.0,4.0,80,0.00,,SCT,0.00,169.00,VWS V14.01,2013-08-03 13:52:00,
2013-08-03 09:57:00,72.9,66.0,30.07,NE,35,0.0,0.0,79,0.00,,SCT,0.00,153.00,VWS V14.01,2013-08-03 13:57:00,
2013-08-03 10:00:00,72.8,66.3,30.07,NE,35,0.0,4.0,80,0.00,,SCT,0.00,169.00,VWS V14.01,2013-08-03 14:00:00,
2013-08-03 10:02:00,73.1,66.2,30.08,NE,35,0.0,1.0,79,0.00,,SCT,0.00,151.00,VWS V14.01,2013-08-03 14:02:00,
2013-08-03 10:07:00,73.3,66.4,30.08,NE,35,0.0,1.0,79,0.00,,SCT,0.00,165.00,VWS V14.01,2013-08-03 14:07:00,
2013-08-03 10:12:00,73.8,68.3,30.08,NE,35,0.0,1.0,83,0.00,,SCT,0.00,195.00,VWS V14.01,2013-08-03 14:12:00,
2013-08-03 10:17:00,73.6,68.8,30.08,NE,35,0.0,1.0,85,0.00,,SCT,0.00,234.00,VWS V14.01,2013-08-03 14:17:00,
2013-08-03 10:22:00,73.2,68.8,30.08,NE,35,0.0,1.0,86,0.00,,SCT,0.00,276.00,VWS V14.01,2013-08-03 14:22:00,
2013-08-03 10:27:00,73.5,68.0,30.08,NE,35,0.0,1.0,83,0.00,,SCT,0.00,320.00,VWS V14.01,2013-08-03 14:27:00,
2013-08-03 10:32:00,73.8,68.0,30.07,NE,35,0.0,2.0,82,0.00,,SCT,0.00,237.00,VWS V14.01,2013-08-03 14:32:00,
2013-08-03 10:37:00,74.0,67.1,30.07,NE,35,0.0,2.0,79,0.00,,SCT,0.00,322.00,VWS V14.01,2013-08-03 14:37:00,
2013-08-03 10:42:00,74.8,67.1,30.07,NE,35,0.0,2.0,77,0.00,,SCT,0.00,316.00,VWS V14.01,2013-08-03 14:42:00,
2013-08-03 10:47:00,75.5,67.8,30.07,NE,35,0.0,2.0,77,0.00,,SCT,0.00,278.00,VWS V14.01,2013-08-03 14:47:00,
2013-08-03 10:52:00,75.7,67.2,30.07,NE,35,0.0,2.0,75,0.00,,SCT,0.00,508.00,VWS V14.01,2013-08-03 14:52:00,
2013-08-03 10:57:00,76.4,66.3,30.07,ENE,78,0.0,3.0,71,0.00,,SCT,0.00,466.00,VWS V14.01,2013-08-03 14:57:00,
2013-08-03 11:00:00,75.8,67.3,30.07,NE,35,0.0,2.0,75,0.00,,SCT,0.00,353.00,VWS V14.01,2013-08-03 15:00:00,
2013-08-03 11:02:00,76.7,67.0,30.07,East,96,0.0,3.0,72,0.00,,SCT,0.00,287.00,VWS V14.01,2013-08-03 15:02:00,
2013-08-03 11:07:00,77.0,66.9,30.07,East,82,2.0,4.0,71,0.00,,SCT,0.00,316.00,VWS V14.01,2013-08-03 15:07:00,
2013-08-03 11:12:00,76.8,66.7,30.07,ENE,77,2.0,4.0,71,0.00,,SCT,0.00,262.00,VWS V14.01,2013-08-03 15:12:00,
2013-08-03 11:17:00,76.8,66.7,30.07,ENE,68,1.0,4.0,71,0.00,,SCT,0.00,250.00,VWS V14.01,2013-08-03 15:17:00,
2013-08-03 11:22:00,77.0,66.9,30.06,NE,52,0.0,4.0,71,0.00,,SCT,0.00,308.00,VWS V14.01,2013-08-03 15:22:00,
2013-08-03 11:27:00,77.3,66.8,30.06,ENE,58,0.0,4.0,70,0.00,,SCT,0.00,469.00,VWS V14.01,2013-08-03 15:27:00,
2013-08-03 11:32:00,78.0,66.6,30.06,ENE,59,0.0,4.0,68,0.00,,SCT,0.00,462.00,VWS V14.01,2013-08-03 15:32:00,
2013-08-03 11:37:00,78.7,66.4,30.06,ENE,59,2.0,4.0,66,0.00,,SCT,0.00,708.00,VWS V14.01,2013-08-03 15:37:00,
2013-08-03 11:42:00,79.1,67.6,30.06,NE,37,0.0,4.0,68,0.00,,SCT,0.00,573.00,VWS V14.01,2013-08-03 15:42:00,
2013-08-03 11:47:00,79.0,67.1,30.06,SSE,153,0.0,4.0,67,0.00,,SCT,0.00,445.00,VWS V14.01,2013-08-03 15:47:00,
2013-08-03 11:52:00,79.4,67.1,30.05,SSE,147,0.0,4.0,66,0.00,,SCT,0.00,250.00,VWS V14.01,2013-08-03 15:52:00,
2013-08-03 11:57:00,79.0,66.2,30.05,SSE,147,0.0,1.0,65,0.00,,SCT,0.00,367.00,VWS V14.01,2013-08-03 15:57:00,
2013-08-03 12:00:00,79.3,67.0,30.06,SSE,147,0.0,4.0,66,0.00,,SCT,0.00,250.00,VWS V14.01,2013-08-03 16:00:00,
2013-08-03 12:02:00,79.5,68.4,30.05,WNW,299,1.0,3.0,69,0.00,,SCT,0.00,445.00,VWS V14.01,2013-08-03 16:02:00,
2013-08-03 12:07:00,78.7,67.7,30.05,West,277,3.0,5.0,69,0.00,,SCT,0.00,969.00,VWS V14.01,2013-08-03 16:07:00,
2013-08-03 12:12:00,79.1,66.8,30.05,WNW,302,1.0,5.0,66,0.00,,SCT,0.00,761.00,VWS V14.01,2013-08-03 16:12:00,
2013-08-03 12:17:00,79.2,66.9,30.05,West,281,2.0,5.0,66,0.00,,SCT,0.00,441.00,VWS V14.01,2013-08-03 16:17:00,
2013-08-03 12:22:00,79.9,68.0,30.05,NW,321,4.0,5.0,67,0.00,,SCT,0.00,443.00,VWS V14.01,2013-08-03 16:22:00,
2013-08-03 12:27:00,79.9,67.1,30.05,NW,315,2.0,6.0,65,0.00,,SCT,0.00,371.00,VWS V14.01,2013-08-03 16:27:00,
2013-08-03 12:32:00,80.1,67.3,30.05,NW,322,0.0,6.0,65,0.00,,SCT,0.00,278.00,VWS V14.01,2013-08-03 16:32:00,
2013-08-03 12:37:00,80.3,67.5,30.05,NW,322,0.0,6.0,65,0.00,,SCT,0.00,220.00,VWS V14.01,2013-08-03 16:37:00,
2013-08-03 12:42:00,80.2,68.3,30.05,NW,322,1.0,6.0,67,0.00,,SCT,0.00,197.00,VWS V14.01,2013-08-03 16:42:00,
2013-08-03 12:47:00,79.9,68.8,30.05,NW,324,1.0,6.0,69,0.00,,SCT,0.00,158.00,VWS V14.01,2013-08-03 16:47:00,
2013-08-03 12:52:00,79.7,69.1,30.05,NW,325,0.0,6.0,70,0.00,,SCT,0.00,155.00,VWS V14.01,2013-08-03 16:52:00,
2013-08-03 12:57:00,79.5,68.9,30.05,NW,325,0.0,1.0,70,0.01,,SCT,0.01,158.00,VWS V14.01,2013-08-03 16:57:00,
2013-08-03 13:00:00,79.7,69.1,30.05,NW,325,0.0,6.0,70,0.00,,SCT,0.00,155.00,VWS V14.01,2013-08-03 17:00:00,
2013-08-03 13:02:00,79.9,66.2,30.05,NE,54,3.0,4.0,63,0.01,,SCT,0.01,158.00,VWS V14.01,2013-08-03 17:02:00,
2013-08-03 13:07:00,80.0,67.2,30.05,NE,35,1.0,5.0,65,0.01,,SCT,0.01,156.00,VWS V14.01,2013-08-03 17:07:00,
2013-08-03 13:12:00,78.7,72.0,30.05,North,5,1.0,5.0,80,0.01,,SCT,0.01,167.00,VWS V14.01,2013-08-03 17:12:00,
2013-08-03 13:17:00,77.7,71.0,30.05,NNW,338,0.0,5.0,80,0.01,,SCT,0.01,193.00,VWS V14.01,2013-08-03 17:17:00,
2013-08-03 13:22:00,77.9,70.9,30.05,NNW,338,0.0,5.0,79,0.01,,SCT,0.01,195.00,VWS V14.01,2013-08-03 17:22:00,
2013-08-03 13:27:00,78.3,70.5,30.05,NNW,338,2.0,5.0,77,0.01,,SCT,0.01,151.00,VWS V14.01,2013-08-03 17:27:00,
2013-08-03 13:32:00,78.4,71.0,30.05,NNW,338,7.0,7.0,78,0.01,,SCT,0.01,148.00,VWS V14.01,2013-08-03 17:32:00,
2013-08-03 13:37:00,77.8,71.9,30.05,NNW,338,0.0,7.0,82,0.01,,SCT,0.01,137.00,VWS V14.01,2013-08-03 17:37:00,
2013-08-03 13:42:00,77.4,71.8,30.05,NNW,338,0.0,7.0,83,0.01,,SCT,0.01,160.00,VWS V14.01,2013-08-03 17:42:00,
2013-08-03 13:47:00,77.6,72.0,30.05,NNW,338,0.0,7.0,83,0.01,,SCT,0.01,160.00,VWS V14.01,2013-08-03 17:47:00,
2013-08-03 13:52:00,77.4,72.2,30.05,NNW,338,0.0,7.0,84,0.01,,SCT,0.01,178.00,VWS V14.01,2013-08-03 17:52:00,
2013-08-03 13:57:00,77.0,71.8,30.04,NNW,338,1.0,3.0,84,0.01,,SCT,0.01,265.00,VWS V14.01,2013-08-03 17:57:00,
2013-08-03 14:00:00,77.4,72.2,30.05,NNW,338,0.0,7.0,84,0.01,,SCT,0.01,178.00,VWS V14.01,2013-08-03 18:00:00,
2013-08-03 14:02:00,76.8,71.2,30.04,NNW,336,0.0,3.0,83,0.01,,SCT,0.01,214.00,VWS V14.01,2013-08-03 18:02:00,
2013-08-03 14:07:00,77.4,71.8,30.04,NNW,328,2.0,3.0,83,0.01,,SCT,0.01,279.00,VWS V14.01,2013-08-03 18:07:00,
2013-08-03 14:12:00,78.3,70.5,30.04,NNW,329,1.0,3.0,77,0.01,,SCT,0.01,308.00,VWS V14.01,2013-08-03 18:12:00,
2013-08-03 14:17:00,79.1,70.9,30.04,NNW,329,0.0,3.0,76,0.01,,SCT,0.01,497.00,VWS V14.01,2013-08-03 18:17:00,
2013-08-03 14:22:00,79.4,70.8,30.04,NNW,328,4.0,4.0,75,0.01,,SCT,0.01,434.00,VWS V14.01,2013-08-03 18:22:00,
2013-08-03 14:27:00,79.9,69.7,30.04,NNW,329,0.0,4.0,71,0.01,,SCT,0.01,279.00,VWS V14.01,2013-08-03 18:27:00,
2013-08-03 14:32:00,80.8,68.8,30.03,North,9,0.0,4.0,67,0.01,,SCT,0.01,1034.00,VWS V14.01,2013-08-03 18:32:00,
2013-08-03 14:37:00,81.4,69.4,30.03,NW,304,0.0,4.0,67,0.01,,SCT,0.01,1107.00,VWS V14.01,2013-08-03 18:37:00,
2013-08-03 14:42:00,82.4,68.1,30.03,SE,125,2.0,6.0,62,0.01,,SCT,0.01,555.00,VWS V14.01,2013-08-03 18:42:00,
2013-08-03 14:47:00,83.3,68.5,30.03,NE,38,7.0,7.0,61,0.01,,SCT,0.01,984.00,VWS V14.01,2013-08-03 18:47:00,
2013-08-03 14:52:00,82.9,66.1,30.03,East,96,4.0,11.0,57,0.01,,SCT,0.01,986.00,VWS V14.01,2013-08-03 18:52:00,
2013-08-03 14:57:00,82.4,67.6,30.03,ESE,113,1.0,5.0,61,0.00,,SCT,0.01,376.00,VWS V14.01,2013-08-03 18:57:00,
2013-08-03 15:00:00,82.8,66.0,30.03,East,96,2.0,11.0,57,0.01,,SCT,0.01,364.00,VWS V14.01,2013-08-03 19:00:00,
2013-08-03 15:02:00,82.4,67.6,30.03,ENE,72,3.0,5.0,61,0.00,,SCT,0.01,524.00,VWS V14.01,2013-08-03 19:02:00,
2013-08-03 15:07:00,82.4,67.6,30.02,ESE,115,4.0,6.0,61,0.00,,SCT,0.01,362.00,VWS V14.01,2013-08-03 19:07:00,
2013-08-03 15:12:00,82.7,68.8,30.02,East,94,4.0,6.0,63,0.00,,SCT,0.01,316.00,VWS V14.01,2013-08-03 19:12:00,
2013-08-03 15:17:00,81.8,66.6,30.02,East,99,5.0,7.0,60,0.00,,SCT,0.01,283.00,VWS V14.01,2013-08-03 19:17:00,
2013-08-03 15:22:00,81.6,67.3,30.02,East,87,4.0,7.0,62,0.00,,SCT,0.01,299.00,VWS V14.01,2013-08-03 19:22:00,
2013-08-03 15:27:00,81.5,67.2,30.02,ENE,78,2.0,7.0,62,0.00,,SCT,0.01,283.00,VWS V14.01,2013-08-03 19:27:00,
2013-08-03 15:32:00,81.5,67.2,30.02,ENE,71,2.0,7.0,62,0.00,,SCT,0.01,209.00,VWS V14.01,2013-08-03 19:32:00,
2013-08-03 15:37:00,81.3,67.1,30.02,East,85,1.0,7.0,62,0.00,,SCT,0.01,204.00,VWS V14.01,2013-08-03 19:37:00,
2013-08-03 15:42:00,81.1,66.9,30.02,East,85,5.0,7.0,62,0.00,,SCT,0.01,216.00,VWS V14.01,2013-08-03 19:42:00,
2013-08-03 15:47:00,81.0,68.1,30.02,ENE,67,2.0,7.0,65,0.00,,SCT,0.01,260.00,VWS V14.01,2013-08-03 19:47:00,
2013-08-03 15:52:00,81.0,68.1,30.02,ENE,67,0.0,7.0,65,0.00,,SCT,0.01,264.00,VWS V14.01,2013-08-03 19:52:00,
2013-08-03 15:57:00,81.2,68.8,30.02,ENE,67,2.0,4.0,66,0.00,,SCT,0.01,246.00,VWS V14.01,2013-08-03 19:57:00,
2013-08-03 16:00:00,81.1,68.2,30.02,ENE,67,0.0,7.0,65,0.00,,SCT,0.01,258.00,VWS V14.01,2013-08-03 20:00:00,
2013-08-03 16:02:00,81.4,68.5,30.02,ENE,76,0.0,4.0,65,0.00,,SCT,0.01,188.00,VWS V14.01,2013-08-03 20:02:00,
2013-08-03 16:07:00,81.1,67.8,30.02,NE,54,0.0,4.0,64,0.00,,SCT,0.01,181.00,VWS V14.01,2013-08-03 20:07:00,
2013-08-03 16:12:00,81.0,67.2,30.02,NE,50,0.0,4.0,63,0.00,,SCT,0.01,267.00,VWS V14.01,2013-08-03 20:12:00,
2013-08-03 16:17:00,81.5,67.7,30.02,NNE,30,0.0,4.0,63,0.00,,SCT,0.01,311.00,VWS V14.01,2013-08-03 20:17:00,
2013-08-03 16:22:00,81.3,70.6,30.02,North,360,0.0,4.0,70,0.00,,SCT,0.01,320.00,VWS V14.01,2013-08-03 20:22:00,
2013-08-03 16:27:00,80.6,70.3,30.02,NNW,330,0.0,4.0,71,0.00,,SCT,0.01,258.00,VWS V14.01,2013-08-03 20:27:00,
2013-08-03 16:32:00,80.8,70.5,30.02,NNW,333,0.0,4.0,71,0.00,,SCT,0.01,214.00,VWS V14.01,2013-08-03 20:32:00,
2013-08-03 16:37:00,81.0,68.6,30.02,NNW,333,0.0,4.0,66,0.00,,SCT,0.01,220.00,VWS V14.01,2013-08-03 20:37:00,
2013-08-03 16:42:00,80.9,69.8,30.02,NNW,333,0.0,4.0,69,0.00,,SCT,0.01,276.00,VWS V14.01,2013-08-03 20:42:00,
2013-08-03 16:47:00,81.1,68.7,30.02,NNW,333,0.0,4.0,66,0.00,,SCT,0.01,230.00,VWS V14.01,2013-08-03 20:47:00,
2013-08-03 16:52:00,81.2,68.8,30.02,NNW,333,0.0,4.0,66,0.00,,SCT,0.01,202.00,VWS V14.01,2013-08-03 20:52:00,
2013-08-03 16:57:00,80.8,70.1,30.02,NNW,333,0.0,2.0,70,0.00,,SCT,0.01,139.00,VWS V14.01,2013-08-03 20:57:00,
2013-08-03 17:00:00,81.1,68.7,30.02,NNW,333,0.0,4.0,66,0.00,,SCT,0.01,202.00,VWS V14.01,2013-08-03 21:00:00,
2013-08-03 17:02:00,80.6,70.3,30.02,NNW,333,0.0,3.0,71,0.00,,SCT,0.01,113.00,VWS V14.01,2013-08-03 21:02:00,
2013-08-03 17:07:00,79.9,70.9,30.02,NNW,333,0.0,3.0,74,0.00,,SCT,0.01,74.00,VWS V14.01,2013-08-03 21:07:00,
2013-08-03 17:12:00,79.5,71.3,30.02,NNW,333,0.0,3.0,76,0.00,,SCT,0.01,69.00,VWS V14.01,2013-08-03 21:12:00,
2013-08-03 17:17:00,79.0,71.6,30.02,NNW,333,0.0,3.0,78,0.00,,SCT,0.01,63.00,VWS V14.01,2013-08-03 21:17:00,
2013-08-03 17:22:00,78.1,71.4,30.02,NNW,333,0.0,3.0,80,0.00,,SCT,0.01,51.00,VWS V14.01,2013-08-03 21:22:00,
2013-08-03 17:27:00,77.5,70.5,30.02,NNW,333,0.0,3.0,79,0.00,,SCT,0.01,49.00,VWS V14.01,2013-08-03 21:27:00,
2013-08-03 17:32:00,76.7,70.1,30.02,NNW,333,0.0,3.0,80,0.00,,SCT,0.01,113.00,VWS V14.01,2013-08-03 21:32:00,
2013-08-03 17:37:00,76.6,71.1,30.02,NNW,333,0.0,3.0,83,0.00,,SCT,0.01,139.00,VWS V14.01,2013-08-03 21:37:00,
2013-08-03 17:42:00,76.1,69.8,30.02,NNW,333,0.0,3.0,81,0.00,,SCT,0.01,97.00,VWS V14.01,2013-08-03 21:42:00,
2013-08-03 17:47:00,76.4,70.5,30.02,NNW,333,0.0,3.0,82,0.00,,SCT,0.01,74.00,VWS V14.01,2013-08-03 21:47:00,
2013-08-03 17:52:00,76.5,70.6,30.02,NNW,333,0.0,3.0,82,0.00,,SCT,0.01,47.00,VWS V14.01,2013-08-03 21:52:00,
2013-08-03 17:57:00,76.3,70.8,30.02,NNW,333,0.0,1.0,83,0.00,,SCT,0.01,47.00,VWS V14.01,2013-08-03 21:57:00,
2013-08-03 18:00:00,76.4,70.5,30.02,NNW,333,0.0,3.0,82,0.00,,SCT,0.01,47.00,VWS V14.01,2013-08-03 22:00:00,
2013-08-03 18:02:00,75.8,69.6,30.02,NNW,333,0.0,1.0,81,0.00,,SCT,0.01,42.00,VWS V14.01,2013-08-03 22:02:00,
2013-08-03 18:07:00,76.0,68.7,30.02,NNW,333,0.0,1.0,78,0.00,,SCT,0.01,35.00,VWS V14.01,2013-08-03 22:07:00,
2013-08-03 18:12:00,76.4,68.7,30.02,NNW,333,0.0,1.0,77,0.00,,SCT,0.01,33.00,VWS V14.01,2013-08-03 22:12:00,
2013-08-03 18:17:00,76.7,68.9,30.03,NNW,333,0.0,1.0,77,0.00,,SCT,0.01,35.00,VWS V14.01,2013-08-03 22:17:00,
2013-08-03 18:22:00,76.3,70.1,30.03,NNW,334,0.0,1.0,81,0.00,,SCT,0.01,21.00,VWS V14.01,2013-08-03 22:22:00,
2013-08-03 18:27:00,76.3,70.1,30.04,North,355,3.0,3.0,81,0.00,,SCT,0.01,21.00,VWS V14.01,2013-08-03 22:27:00,
2013-08-03 18:32:00,76.1,71.3,30.04,NE,48,0.0,7.0,85,0.00,,SCT,0.01,12.00,VWS V14.01,2013-08-03 22:32:00,
2013-08-03 18:37:00,75.5,71.4,30.04,NE,34,4.0,7.0,87,0.00,,SCT,0.01,23.00,VWS V14.01,2013-08-03 22:37:00,
2013-08-03 18:42:00,74.9,70.1,30.04,ENE,57,0.0,8.0,85,0.00,,SCT,0.01,21.00,VWS V14.01,2013-08-03 22:42:00,
2013-08-03 18:47:00,74.2,70.1,30.04,ENE,69,0.0,8.0,87,0.00,,SCT,0.01,26.00,VWS V14.01,2013-08-03 22:47:00,
2013-08-03 18:52:00,73.6,70.2,30.04,NNW,338,0.0,8.0,89,0.00,,SCT,0.01,33.00,VWS V14.01,2013-08-03 22:52:00,
2013-08-03 18:57:00,73.0,70.2,30.04,NNW,343,0.0,1.0,91,0.00,,SCT,0.01,49.00,VWS V14.01,2013-08-03 22:57:00,
2013-08-03 19:00:00,73.5,70.1,30.04,NNW,338,0.0,8.0,89,0.00,,SCT,0.01,37.00,VWS V14.01,2013-08-03 23:00:00,
2013-08-03 19:02:00,72.8,70.0,30.04,NNW,343,0.0,1.0,91,0.00,,SCT,0.01,83.00,VWS V14.01,2013-08-03 23:02:00,
2013-08-03 19:07:00,72.9,70.1,30.04,NNW,343,0.0,1.0,91,0.00,,SCT,0.01,72.00,VWS V14.01,2013-08-03 23:07:00,
2013-08-03 19:12:00,72.7,70.6,30.03,NNW,343,1.0,1.0,93,0.00,,SCT,0.01,47.00,VWS V14.01,2013-08-03 23:12:00,
2013-08-03 19:17:00,72.5,70.4,30.03,NNW,343,0.0,1.0,93,0.00,,SCT,0.01,42.00,VWS V14.01,2013-08-03 23:17:00,
2013-08-03 19:22:00,72.4,70.3,30.03,NNW,343,0.0,1.0,93,0.00,,SCT,0.01,42.00,VWS V14.01,2013-08-03 23:22:00,
2013-08-03 19:27:00,72.2,70.1,30.03,NNW,343,0.0,1.0,93,0.00,,SCT,0.01,46.00,VWS V14.01,2013-08-03 23:27:00,
2013-08-03 19:32:00,72.0,70.2,30.03,NW,315,0.0,3.0,94,0.00,,SCT,0.01,42.00,VWS V14.01,2013-08-03 23:32:00,
2013-08-03 19:37:00,71.8,70.0,30.03,NW,316,0.0,3.0,94,0.00,,SCT,0.01,40.00,VWS V14.01,2013-08-03 23:37:00,
2013-08-03 19:42:00,71.7,70.2,30.03,NW,316,0.0,3.0,95,0.00,,SCT,0.01,32.00,VWS V14.01,2013-08-03 23:42:00,
2013-08-03 19:47:00,72.0,69.6,30.03,NW,316,0.0,3.0,92,0.00,,SCT,0.01,32.00,VWS V14.01,2013-08-03 23:47:00,
2013-08-03 19:52:00,72.8,70.3,30.03,NW,315,0.0,3.0,92,0.00,,SCT,0.01,39.00,VWS V14.01,2013-08-03 23:52:00,
2013-08-03 19:57:00,72.0,69.9,30.03,NW,316,0.0,2.0,93,0.00,,SCT,0.01,28.00,VWS V14.01,2013-08-03 23:57:00,
2013-08-03 20:00:00,72.8,70.3,30.03,NW,316,2.0,3.0,92,0.00,,SCT,0.01,37.00,VWS V14.01,2013-08-04 00:00:00,
2013-08-03 20:02:00,71.8,70.0,30.03,NW,317,3.0,3.0,94,0.00,,SCT,0.01,25.00,VWS V14.01,2013-08-04 00:02:00,
2013-08-03 20:07:00,71.6,69.8,30.03,NW,317,2.0,3.0,94,0.00,,SCT,0.01,7.00,VWS V14.01,2013-08-04 00:07:00,
2013-08-03 20:12:00,71.3,69.5,30.03,NW,317,0.0,3.0,94,0.00,,SCT,0.01,0.00,VWS V14.01,2013-08-04 00:12:00,
2013-08-03 20:17:00,71.3,69.8,30.03,NW,317,0.0,3.0,95,0.00,,SCT,0.01,0.00,VWS V14.01,2013-08-04 00:17:00,
2013-08-03 20:22:00,71.4,69.9,30.03,NW,317,0.0,3.0,95,0.00,,SCT,0.01,0.00,VWS V14.01,2013-08-04 00:22:00,
2013-08-03 20:27:00,71.4,69.6,30.03,NW,317,0.0,3.0,94,0.00,,SCT,0.01,0.00,VWS V14.01,2013-08-04 00:27:00,
2013-08-03 20:32:00,71.4,69.6,30.03,NW,317,0.0,3.0,94,0.00,,SCT,0.01,0.00,VWS V14.01,2013-08-04 00:32:00,
2013-08-03 20:37:00,71.3,69.5,30.03,NW,317,0.0,4.0,94,0.00,,SCT,0.01,0.00,VWS V14.01,2013-08-04 00:37:00,
2013-08-03 20:42:00,71.2,69.7,30.03,NNW,327,3.0,4.0,95,0.00,,SCT,0.01,0.00,VWS V14.01,2013-08-04 00:42:00,
2013-08-03 20:47:00,71.1,69.3,30.03,NNW,327,2.0,4.0,94,0.00,,SCT,0.01,0.00,VWS V14.01,2013-08-04 00:47:00,
2013-08-03 20:52:00,71.1,69.3,30.04,NNW,327,0.0,4.0,94,0.00,,SCT,0.01,0.00,VWS V14.01,2013-08-04 00:52:00,
2013-08-03 20:57:00,71.3,69.5,30.04,NNW,327,0.0,0.0,94,0.00,,SCT,0.01,0.00,VWS V14.01,2013-08-04 00:57:00,
2013-08-03 21:00:00,71.1,69.3,30.04,NNW,327,0.0,4.0,94,0.00,,SCT,0.01,0.00,VWS V14.01,2013-08-04 01:00:00,
2013-08-03 21:02:00,71.2,69.4,30.03,NNW,327,0.0,1.0,94,0.00,,SCT,0.01,0.00,VWS V14.01,2013-08-04 01:02:00,
2013-08-03 21:07:00,70.9,69.1,30.04,North,350,0.0,1.0,94,0.00,,SCT,0.01,0.00,VWS V14.01,2013-08-04 01:07:00,
2013-08-03 21:12:00,70.8,69.0,30.04,North,350,0.0,1.0,94,0.00,,SCT,0.01,0.00,VWS V14.01,2013-08-04 01:12:00,
2013-08-03 21:17:00,70.8,69.0,30.04,North,350,0.0,1.0,94,0.00,,SCT,0.01,0.00,VWS V14.01,2013-08-04 01:17:00,
2013-08-03 21:22:00,70.8,69.0,30.04,North,350,0.0,3.0,94,0.00,,SCT,0.01,0.00,VWS V14.01,2013-08-04 01:22:00,
2013-08-03 21:27:00,70.8,69.0,30.04,North,350,0.0,3.0,94,0.00,,SCT,0.01,0.00,VWS V14.01,2013-08-04 01:27:00,
2013-08-03 21:32:00,70.6,68.8,30.04,North,350,0.0,3.0,94,0.00,,SCT,0.01,0.00,VWS V14.01,2013-08-04 01:32:00,
2013-08-03 21:37:00,70.6,68.8,30.04,North,350,0.0,3.0,94,0.00,,SCT,0.01,0.00,VWS V14.01,2013-08-04 01:37:00,
2013-08-03 21:42:00,70.6,68.8,30.05,North,350,0.0,3.0,94,0.00,,SCT,0.01,0.00,VWS V14.01,2013-08-04 01:42:00,
2013-08-03 21:47:00,70.6,68.8,30.05,North,350,0.0,3.0,94,0.00,,SCT,0.01,0.00,VWS V14.01,2013-08-04 01:47:00,
2013-08-03 21:52:00,70.6,69.1,30.05,North,350,0.0,3.0,95,0.00,,SCT,0.01,0.00,VWS V14.01,2013-08-04 01:52:00,
2013-08-03 21:57:00,70.8,69.3,30.05,North,350,0.0,0.0,95,0.00,,SCT,0.01,0.00,VWS V14.01,2013-08-04 01:57:00,
2013-08-03 22:00:00,70.6,69.1,30.05,North,350,0.0,3.0,95,0.00,,SCT,0.01,0.00,VWS V14.01,2013-08-04 02:00:00,
2013-08-03 22:02:00,70.9,69.1,30.05,North,350,0.0,0.0,94,0.00,,SCT,0.01,0.00,VWS V14.01,2013-08-04 02:02:00,
2013-08-03 22:07:00,71.2,69.1,30.05,North,350,0.0,0.0,93,0.00,,SCT,0.01,0.00,VWS V14.01,2013-08-04 02:07:00,
2013-08-03 22:12:00,71.3,69.2,30.05,North,350,0.0,0.0,93,0.00,,SCT,0.01,0.00,VWS V14.01,2013-08-04 02:12:00,
2013-08-03 22:17:00,71.3,69.2,30.05,North,350,0.0,1.0,93,0.00,,SCT,0.01,0.00,VWS V14.01,2013-08-04 02:17:00,
2013-08-03 22:22:00,71.5,69.4,30.05,North,350,0.0,1.0,93,0.00,,SCT,0.01,0.00,VWS V14.01,2013-08-04 02:22:00,
2013-08-03 22:27:00,71.7,69.6,30.05,North,350,0.0,2.0,93,0.00,,SCT,0.01,0.00,VWS V14.01,2013-08-04 02:27:00,
2013-08-03 22:32:00,71.8,69.3,30.05,North,350,0.0,2.0,92,0.00,,SCT,0.01,0.00,VWS V14.01,2013-08-04 02:32:00,
2013-08-03 22:37:00,71.5,69.4,30.05,North,350,0.0,2.0,93,0.00,,SCT,0.01,0.00,VWS V14.01,2013-08-04 02:37:00,
2013-08-03 22:42:00,71.1,69.3,30.05,North,350,2.0,3.0,94,0.00,,SCT,0.01,0.00,VWS V14.01,2013-08-04 02:42:00,
2013-08-03 22:47:00,70.9,69.1,30.05,North,350,0.0,3.0,94,0.00,,SCT,0.01,0.00,VWS V14.01,2013-08-04 02:47:00,
2013-08-03 22:52:00,71.1,69.3,30.05,North,350,0.0,3.0,94,0.00,,SCT,0.01,0.00,VWS V14.01,2013-08-04 02:52:00,
2013-08-03 22:57:00,71.1,69.3,30.05,North,350,0.0,1.0,94,0.00,,SCT,0.01,0.00,VWS V14.01,2013-08-04 02:57:00,
2013-08-03 23:00:00,71.1,69.3,30.05,North,350,0.0,3.0,94,0.00,,SCT,0.01,0.00,VWS V14.01,2013-08-04 03:00:00,
2013-08-03 23:02:00,70.9,69.1,30.05,North,350,2.0,2.0,94,0.00,,SCT,0.01,0.00,VWS V14.01,2013-08-04 03:02:00,
2013-08-03 23:07:00,70.7,68.9,30.05,North,350,0.0,2.0,94,0.00,,SCT,0.01,0.00,VWS V14.01,2013-08-04 03:07:00,
2013-08-03 23:12:00,70.6,68.8,30.05,North,350,0.0,2.0,94,0.00,,SCT,0.01,0.00,VWS V14.01,2013-08-04 03:12:00,
2013-08-03 23:17:00,70.8,69.3,30.05,North,350,0.0,2.0,95,0.00,,SCT,0.01,0.00,VWS V14.01,2013-08-04 03:17:00,
2013-08-03 23:22:00,70.6,68.8,30.05,North,350,0.0,2.0,94,0.00,,SCT,0.01,0.00,VWS V14.01,2013-08-04 03:22:00,
2013-08-03 23:27:00,70.3,68.8,30.04,North,350,0.0,2.0,95,0.00,,SCT,0.01,0.00,VWS V14.01,2013-08-04 03:27:00,
2013-08-03 23:32:00,70.1,68.6,30.04,North,350,0.0,3.0,95,0.00,,SCT,0.01,0.00,VWS V14.01,2013-08-04 03:32:00,
2013-08-03 23:37:00,70.0,68.5,30.04,North,350,1.0,3.0,95,0.00,,SCT,0.01,0.00,VWS V14.01,2013-08-04 03:37:00,
2013-08-03 23:42:00,69.8,68.3,30.04,North,350,0.0,3.0,95,0.00,,SCT,0.01,0.00,VWS V14.01,2013-08-04 03:42:00,
2013-08-03 23:47:00,69.9,68.4,30.04,North,350,0.0,3.0,95,0.00,,SCT,0.01,0.00,VWS V14.01,2013-08-04 03:47:00,
2013-08-03 23:52:00,69.5,68.0,30.04,North,350,0.0,3.0,95,0.00,,SCT,0.01,0.00,VWS V14.01,2013-08-04 03:52:00,
2013-08-03 23:57:00,69.4,67.9,30.04,North,350,0.0,0.0,95,0.00,,SCT,0.00,0.00,VWS V14.01,2013-08-04 03:57:00,